createdAt,value
2019-04-29T00:00:29.201Z,6.09
2019-04-29T00:01:29.146Z,6.12
2019-04-29T00:02:29.097Z,6.02
2019-04-29T00:03:29.049Z,6.01
2019-04-29T00:04:29.001Z,5.98
2019-04-29T00:05:28.952Z,5.95
2019-04-29T00:06:28.898Z,5.99
2019-04-29T00:07:28.848Z,6.07
2019-04-29T00:08:28.797Z,6.02
2019-04-29T00:09:30.936Z,6.06
2019-04-29T00:10:28.702Z,6.06
2019-04-29T00:11:28.649Z,5.97
2019-04-29T00:12:28.605Z,5.98
2019-04-29T00:13:28.564Z,5.94
2019-04-29T00:14:28.498Z,5.97
2019-04-29T00:15:28.450Z,5.84
2019-04-29T00:16:28.401Z,5.94
2019-04-29T00:17:28.349Z,5.92
2019-04-29T00:18:28.299Z,5.84
2019-04-29T00:19:28.249Z,5.91
2019-04-29T00:20:28.202Z,5.88
2019-04-29T00:21:28.150Z,5.88
2019-04-29T00:22:28.109Z,5.88
2019-04-29T00:23:28.053Z,5.81
2019-04-29T00:24:28.002Z,5.81
2019-04-29T00:25:27.956Z,5.84
2019-04-29T00:26:27.903Z,5.88
2019-04-29T00:27:27.854Z,5.77
2019-04-29T00:28:27.807Z,5.83
2019-04-29T00:29:27.755Z,5.80
2019-04-29T00:30:27.701Z,5.76
2019-04-29T00:31:27.652Z,5.81
2019-04-29T00:32:27.608Z,5.81
2019-04-29T00:33:27.551Z,5.80
2019-04-29T00:34:27.528Z,5.79
2019-04-29T00:35:27.453Z,5.76
2019-04-29T00:36:27.404Z,5.81
2019-04-29T00:37:27.350Z,5.74
2019-04-29T00:38:27.303Z,5.74
2019-04-29T00:39:27.252Z,5.73
2019-04-29T00:40:27.206Z,5.67
2019-04-29T00:41:27.151Z,5.70
2019-04-29T00:42:27.104Z,5.69
2019-04-29T00:43:27.054Z,5.70
2019-04-29T00:44:27.002Z,5.65
2019-04-29T00:45:26.951Z,5.64
2019-04-29T00:46:26.904Z,5.61
2019-04-29T00:47:26.857Z,5.62
2019-04-29T00:48:26.803Z,5.67
2019-04-29T00:49:26.753Z,5.64
2019-04-29T00:50:26.702Z,5.64
2019-04-29T00:51:26.654Z,5.55
2019-04-29T00:52:26.614Z,5.64
2019-04-29T00:53:26.552Z,5.59
2019-04-29T00:54:26.505Z,5.61
2019-04-29T00:55:26.454Z,5.61
2019-04-29T00:56:26.411Z,5.67
2019-04-29T00:57:26.351Z,5.64
2019-04-29T00:58:26.305Z,5.58
2019-04-29T00:59:26.251Z,5.62
2019-04-29T01:00:26.206Z,5.61
2019-04-29T01:01:26.162Z,5.64
2019-04-29T01:02:26.103Z,5.61
2019-04-29T01:03:26.052Z,5.58
2019-04-29T01:04:26.007Z,5.54
2019-04-29T01:05:25.950Z,5.54
2019-04-29T01:06:25.903Z,5.54
2019-04-29T01:07:25.852Z,5.52
2019-04-29T01:08:25.803Z,5.58
2019-04-29T01:09:25.753Z,5.56
2019-04-29T01:10:25.702Z,5.64
2019-04-29T01:11:25.651Z,5.54
2019-04-29T01:12:25.602Z,5.49
2019-04-29T01:13:25.558Z,5.47
2019-04-29T01:14:25.501Z,5.54
2019-04-29T01:15:25.455Z,5.51
2019-04-29T01:16:25.403Z,5.49
2019-04-29T01:17:25.354Z,5.58
2019-04-29T01:18:25.302Z,5.43
2019-04-29T01:19:25.252Z,5.43
2019-04-29T01:20:25.212Z,5.47
2019-04-29T01:21:25.150Z,5.47
2019-04-29T01:22:25.101Z,5.38
2019-04-29T01:23:25.052Z,5.38
2019-04-29T01:24:25.002Z,5.38
2019-04-29T01:25:24.950Z,5.43
2019-04-29T01:26:24.901Z,5.44
2019-04-29T01:27:24.852Z,5.41
2019-04-29T01:28:24.802Z,5.34
2019-04-29T01:29:24.751Z,5.38
2019-04-29T01:30:24.700Z,5.37
2019-04-29T01:31:24.648Z,5.40
2019-04-29T01:32:24.601Z,5.37
2019-04-29T01:33:24.549Z,5.40
2019-04-29T01:34:24.500Z,5.33
2019-04-29T01:35:24.453Z,5.31
2019-04-29T01:36:24.398Z,5.26
2019-04-29T01:37:24.350Z,5.37
2019-04-29T01:38:24.300Z,5.25
2019-04-29T01:39:24.247Z,5.31
2019-04-29T01:40:24.200Z,5.22
2019-04-29T01:41:24.149Z,5.28
2019-04-29T01:42:24.098Z,5.28
2019-04-29T01:43:24.068Z,5.18
2019-04-29T01:44:24.039Z,5.25
2019-04-29T01:45:23.948Z,5.18
2019-04-29T01:46:23.896Z,5.19
2019-04-29T01:47:23.845Z,5.23
2019-04-29T01:48:23.797Z,5.19
2019-04-29T01:49:23.746Z,5.20
2019-04-29T01:50:23.696Z,5.23
2019-04-29T01:51:23.645Z,5.19
2019-04-29T01:52:23.596Z,5.19
2019-04-29T01:53:23.547Z,5.18
2019-04-29T01:54:23.495Z,5.15
2019-04-29T01:55:23.447Z,5.10
2019-04-29T01:56:23.395Z,5.15
2019-04-29T01:57:23.345Z,5.08
2019-04-29T01:58:23.294Z,5.01
2019-04-29T01:59:23.247Z,5.04
2019-04-29T02:00:23.194Z,5.08
2019-04-29T02:01:23.145Z,5.05
2019-04-29T02:02:23.094Z,5.07
2019-04-29T02:03:23.049Z,5.08
2019-04-29T02:04:22.992Z,5.07
2019-04-29T02:05:22.948Z,5.12
2019-04-29T02:06:22.892Z,5.05
2019-04-29T02:07:22.843Z,4.95
2019-04-29T02:08:22.791Z,5.01
2019-04-29T02:09:22.742Z,4.98
2019-04-29T02:10:22.690Z,5.02
2019-04-29T02:11:22.642Z,4.97
2019-04-29T02:12:22.593Z,5.02
2019-04-29T02:13:22.541Z,4.89
2019-04-29T02:14:22.489Z,4.94
2019-04-29T02:15:22.439Z,4.89
2019-04-29T02:16:22.392Z,4.87
2019-04-29T02:17:22.338Z,4.87
2019-04-29T02:18:22.292Z,4.89
2019-04-29T02:19:22.236Z,4.94
2019-04-29T02:20:22.189Z,4.83
2019-04-29T02:21:22.135Z,4.95
2019-04-29T02:22:22.085Z,4.76
2019-04-29T02:23:22.034Z,4.84
2019-04-29T02:24:21.985Z,4.79
2019-04-29T02:25:21.934Z,4.84
2019-04-29T02:26:21.885Z,4.79
2019-04-29T02:27:21.834Z,4.89
2019-04-29T02:28:21.793Z,4.83
2019-04-29T02:29:21.733Z,4.79
2019-04-29T02:30:21.683Z,4.89
2019-04-29T02:31:21.633Z,4.84
2019-04-29T02:32:21.583Z,4.84
2019-04-29T02:33:21.538Z,4.90
2019-04-29T02:34:21.480Z,4.89
2019-04-29T02:35:21.431Z,4.83
2019-04-29T02:36:21.384Z,4.92
2019-04-29T02:37:21.329Z,4.95
2019-04-29T02:38:21.283Z,4.83
2019-04-29T02:39:21.228Z,4.83
2019-04-29T02:40:21.178Z,4.78
2019-04-29T02:41:21.129Z,4.84
2019-04-29T02:42:21.100Z,4.83
2019-04-29T02:43:21.028Z,4.82
2019-04-29T02:44:20.979Z,4.78
2019-04-29T02:45:20.931Z,4.78
2019-04-29T02:46:20.876Z,4.75
2019-04-29T02:47:20.845Z,4.74
2019-04-29T02:48:20.775Z,4.76
2019-04-29T02:49:20.725Z,4.71
2019-04-29T02:50:20.675Z,4.76
2019-04-29T02:51:20.628Z,4.75
2019-04-29T02:52:20.573Z,4.76
2019-04-29T02:53:20.529Z,4.76
2019-04-29T02:54:20.476Z,4.70
2019-04-29T02:55:20.419Z,4.64
2019-04-29T02:56:20.372Z,4.66
2019-04-29T02:57:20.326Z,4.66
2019-04-29T02:58:20.272Z,4.66
2019-04-29T02:59:20.219Z,4.67
2019-04-29T03:00:20.171Z,4.66
2019-04-29T03:01:20.125Z,4.64
2019-04-29T03:02:20.074Z,4.66
2019-04-29T03:03:20.018Z,4.68
2019-04-29T03:04:19.967Z,4.64
2019-04-29T03:05:19.917Z,4.68
2019-04-29T03:06:19.869Z,4.66
2019-04-29T03:07:19.817Z,4.71
2019-04-29T03:08:19.765Z,4.67
2019-04-29T03:09:19.715Z,4.66
2019-04-29T03:10:19.671Z,4.64
2019-04-29T03:11:19.615Z,4.67
2019-04-29T03:12:19.570Z,4.67
2019-04-29T03:13:19.510Z,4.68
2019-04-29T03:14:19.465Z,4.66
2019-04-29T03:15:19.413Z,4.64
2019-04-29T03:16:19.361Z,4.66
2019-04-29T03:17:19.491Z,4.61
2019-04-29T03:18:19.270Z,4.70
2019-04-29T03:19:19.210Z,4.53
2019-04-29T03:20:19.160Z,4.56
2019-04-29T03:21:19.106Z,4.56
2019-04-29T03:22:19.061Z,4.60
2019-04-29T03:23:19.040Z,4.53
2019-04-29T03:24:18.959Z,4.56
2019-04-29T03:25:18.907Z,4.57
2019-04-29T03:26:18.921Z,4.63
2019-04-29T03:27:18.815Z,4.56
2019-04-29T03:28:18.757Z,4.58
2019-04-29T03:29:18.703Z,4.56
2019-04-29T03:30:18.655Z,4.61
2019-04-29T03:31:18.605Z,4.53
2019-04-29T03:32:18.569Z,4.58
2019-04-29T03:33:18.513Z,4.61
2019-04-29T03:34:18.497Z,4.56
2019-04-29T03:35:18.399Z,4.58
2019-04-29T03:36:18.351Z,4.61
2019-04-29T03:37:18.297Z,4.53
2019-04-29T03:38:18.248Z,4.53
2019-04-29T03:39:18.198Z,4.56
2019-04-29T03:40:18.154Z,4.53
2019-04-29T03:41:18.097Z,4.58
2019-04-29T03:42:18.046Z,4.60
2019-04-29T03:43:17.996Z,4.50
2019-04-29T03:44:17.959Z,4.58
2019-04-29T03:45:17.901Z,4.61
2019-04-29T03:46:17.844Z,4.52
2019-04-29T03:47:18.913Z,4.58
2019-04-29T03:48:17.747Z,4.56
2019-04-29T03:49:17.695Z,4.53
2019-04-29T03:50:17.640Z,4.56
2019-04-29T03:51:17.591Z,4.56
2019-04-29T03:52:17.540Z,4.56
2019-04-29T03:53:17.494Z,4.63
2019-04-29T03:54:17.437Z,4.50
2019-04-29T03:55:17.391Z,4.53
2019-04-29T03:56:17.339Z,4.53
2019-04-29T03:57:17.291Z,4.53
2019-04-29T03:58:17.249Z,4.61
2019-04-29T03:59:17.191Z,4.49
2019-04-29T04:00:17.138Z,4.56
2019-04-29T04:01:17.085Z,4.52
2019-04-29T04:02:17.034Z,4.60
2019-04-29T04:03:16.991Z,4.60
2019-04-29T04:04:16.937Z,4.53
2019-04-29T04:05:16.883Z,4.53
2019-04-29T04:06:16.840Z,4.56
2019-04-29T04:07:16.784Z,4.53
2019-04-29T04:08:16.732Z,4.50
2019-04-29T04:09:16.691Z,4.67
2019-04-29T04:10:16.633Z,4.66
2019-04-29T04:11:16.583Z,4.64
2019-04-29T04:12:16.532Z,4.56
2019-04-29T04:13:16.488Z,4.67
2019-04-29T04:14:16.453Z,4.67
2019-04-29T04:15:16.378Z,4.63
2019-04-29T04:16:16.326Z,4.67
2019-04-29T04:17:20.198Z,4.66
2019-04-29T04:18:16.235Z,4.66
2019-04-29T04:19:16.175Z,4.63
2019-04-29T04:20:16.152Z,4.71
2019-04-29T04:21:16.073Z,4.67
2019-04-29T04:22:16.028Z,4.66
2019-04-29T04:23:15.974Z,4.63
2019-04-29T04:24:15.923Z,4.63
2019-04-29T04:25:15.871Z,4.63
2019-04-29T04:26:15.827Z,4.75
2019-04-29T04:27:15.771Z,4.67
2019-04-29T04:28:15.720Z,4.74
2019-04-29T04:29:15.670Z,4.70
2019-04-29T04:30:15.619Z,4.71
2019-04-29T04:31:15.573Z,4.76
2019-04-29T04:32:15.520Z,4.79
2019-04-29T04:33:15.469Z,4.78
2019-04-29T04:34:15.418Z,4.78
2019-04-29T04:35:15.381Z,4.82
2019-04-29T04:36:15.323Z,4.84
2019-04-29T04:37:15.270Z,4.78
2019-04-29T04:38:15.215Z,4.84
2019-04-29T04:39:15.197Z,4.84
2019-04-29T04:40:15.117Z,4.82
2019-04-29T04:41:15.060Z,4.86
2019-04-29T04:42:15.010Z,4.89
2019-04-29T04:43:14.964Z,4.84
2019-04-29T04:44:14.913Z,4.87
2019-04-29T04:45:14.864Z,4.86
2019-04-29T04:46:14.814Z,4.83
2019-04-29T04:47:14.763Z,4.78
2019-04-29T04:48:14.708Z,4.87
2019-04-29T04:49:15.919Z,4.84
2019-04-29T04:50:14.609Z,4.94
2019-04-29T04:51:14.559Z,4.89
2019-04-29T04:52:14.508Z,4.83
2019-04-29T04:53:14.465Z,4.83
2019-04-29T04:54:14.478Z,4.94
2019-04-29T04:55:14.358Z,4.89
2019-04-29T04:56:14.306Z,4.87
2019-04-29T04:57:14.257Z,4.84
2019-04-29T04:58:14.203Z,4.86
2019-04-29T04:59:14.162Z,4.86
2019-04-29T05:00:14.104Z,4.84
2019-04-29T05:01:14.056Z,4.92
2019-04-29T05:02:14.001Z,4.86
2019-04-29T05:03:13.958Z,4.87
2019-04-29T05:04:13.903Z,4.92
2019-04-29T05:05:13.857Z,4.87
2019-04-29T05:06:13.802Z,5.02
2019-04-29T05:07:13.753Z,4.97
2019-04-29T05:08:13.700Z,4.97
2019-04-29T05:09:13.651Z,5.05
2019-04-29T05:10:13.602Z,5.07
2019-04-29T05:11:13.547Z,5.01
2019-04-29T05:12:14.186Z,5.05
2019-04-29T05:13:26.986Z,5.02
2019-04-29T05:14:13.398Z,5.05
2019-04-29T05:15:13.346Z,5.04
2019-04-29T05:16:13.297Z,5.12
2019-04-29T05:17:13.247Z,5.13
2019-04-29T05:18:13.195Z,5.20
2019-04-29T05:19:13.145Z,5.20
2019-04-29T05:20:13.097Z,5.20
2019-04-29T05:21:13.052Z,5.28
2019-04-29T05:22:12.996Z,5.28
2019-04-29T05:23:12.945Z,5.28
2019-04-29T05:24:12.895Z,5.31
2019-04-29T05:25:12.842Z,5.19
2019-04-29T05:26:12.791Z,5.34
2019-04-29T05:27:12.742Z,5.36
2019-04-29T05:28:12.693Z,5.37
2019-04-29T05:29:12.642Z,5.36
2019-04-29T05:30:12.591Z,5.37
2019-04-29T05:31:12.540Z,5.41
2019-04-29T05:32:12.492Z,5.54
2019-04-29T05:33:12.441Z,5.52
2019-04-29T05:34:12.391Z,5.52
2019-04-29T05:35:12.343Z,5.51
2019-04-29T05:36:12.290Z,5.56
2019-04-29T05:37:12.242Z,5.59
2019-04-29T05:38:12.191Z,5.62
2019-04-29T05:39:12.145Z,5.62
2019-04-29T05:40:12.095Z,5.67
2019-04-29T05:41:12.042Z,5.64
2019-04-29T05:42:16.068Z,5.72
2019-04-29T05:43:11.939Z,5.65
2019-04-29T05:44:11.889Z,5.69
2019-04-29T05:45:11.837Z,5.77
2019-04-29T05:46:11.792Z,5.76
2019-04-29T05:47:11.739Z,5.83
2019-04-29T05:48:11.690Z,5.83
2019-04-29T05:49:11.637Z,5.91
2019-04-29T05:50:16.222Z,5.88
2019-04-29T05:51:11.563Z,6.01
2019-04-29T05:52:11.494Z,5.98
2019-04-29T05:53:15.693Z,5.95
2019-04-29T05:54:11.387Z,6.05
2019-04-29T05:55:13.730Z,6.10
2019-04-29T05:56:11.291Z,6.07
2019-04-29T05:57:11.245Z,6.20
2019-04-29T05:58:11.189Z,6.20
2019-04-29T05:59:12.800Z,6.31
2019-04-29T06:00:11.090Z,6.19
2019-04-29T06:01:11.041Z,6.22
2019-04-29T06:02:10.993Z,6.35
2019-04-29T06:03:10.942Z,6.36
2019-04-29T06:04:11.582Z,6.43
2019-04-29T06:05:10.840Z,6.44
2019-04-29T06:06:12.392Z,6.47
2019-04-29T06:07:10.743Z,6.57
2019-04-29T06:08:10.692Z,6.67
2019-04-29T06:09:11.648Z,6.65
2019-04-29T06:10:10.592Z,6.72
2019-04-29T06:11:10.542Z,6.78
2019-04-29T06:12:10.495Z,6.87
2019-04-29T06:13:10.443Z,6.87
2019-04-29T06:14:10.397Z,6.92
2019-04-29T06:15:10.346Z,7.05
2019-04-29T06:16:10.296Z,7.03
2019-04-29T06:17:10.246Z,7.00
2019-04-29T06:18:10.195Z,7.11
2019-04-29T06:19:10.146Z,7.15
2019-04-29T06:20:13.121Z,7.25
2019-04-29T06:21:10.052Z,7.28
2019-04-29T06:22:09.995Z,7.29
2019-04-29T06:23:09.950Z,7.33
2019-04-29T06:24:09.899Z,7.32
2019-04-29T06:25:09.848Z,7.39
2019-04-29T06:26:09.799Z,7.48
2019-04-29T06:27:09.752Z,7.46
2019-04-29T06:28:09.700Z,7.43
2019-04-29T06:29:09.652Z,7.61
2019-04-29T06:30:09.602Z,7.58
2019-04-29T06:31:09.553Z,7.74
2019-04-29T06:32:09.503Z,7.77
2019-04-29T06:33:09.455Z,7.69
2019-04-29T06:34:09.404Z,7.75
2019-04-29T06:35:10.727Z,7.96
2019-04-29T06:36:09.308Z,7.90
2019-04-29T06:37:09.255Z,7.93
2019-04-29T06:38:09.211Z,8.02
2019-04-29T06:39:09.163Z,8.02
2019-04-29T06:40:09.112Z,8.13
2019-04-29T06:41:09.739Z,8.20
2019-04-29T06:42:09.015Z,8.20
2019-04-29T06:44:15.971Z,8.34
2019-04-29T06:45:08.867Z,8.31
2019-04-29T06:46:08.816Z,8.41
2019-04-29T06:47:08.767Z,8.52
2019-04-29T06:48:08.719Z,8.46
2019-04-29T06:49:10.636Z,8.52
2019-04-29T06:50:08.621Z,8.61
2019-04-29T06:51:08.571Z,8.64
2019-04-29T06:52:08.523Z,8.64
2019-04-29T06:53:08.479Z,8.71
2019-04-29T06:54:08.425Z,8.61
2019-04-29T06:55:08.376Z,8.71
2019-04-29T06:56:09.240Z,8.72
2019-04-29T06:57:08.278Z,8.77
2019-04-29T06:58:08.230Z,8.95
2019-04-29T06:59:12.275Z,8.93
2019-04-29T07:00:08.133Z,9.00
2019-04-29T07:01:08.084Z,9.12
2019-04-29T07:02:09.518Z,9.15
2019-04-29T07:03:07.987Z,9.19
2019-04-29T07:05:07.892Z,9.19
2019-04-29T07:06:07.846Z,9.39
2019-04-29T07:07:07.794Z,9.39
2019-04-29T07:08:07.754Z,9.36
2019-04-29T07:09:07.701Z,9.51
2019-04-29T07:10:07.647Z,9.51
2019-04-29T07:11:07.635Z,9.56
2019-04-29T07:12:08.101Z,9.59
2019-04-29T07:13:07.511Z,9.63
2019-04-29T07:14:07.455Z,9.74
2019-04-29T07:15:11.820Z,9.74
2019-04-29T07:18:14.518Z,9.94
2019-04-29T07:19:14.471Z,10.03
2019-04-29T07:20:14.426Z,9.99
2019-04-29T07:21:14.376Z,10.09
2019-04-29T07:22:14.327Z,10.20
2019-04-29T07:23:14.282Z,10.24
2019-04-29T07:24:14.232Z,10.23
2019-04-29T07:25:14.185Z,10.23
2019-04-29T07:26:14.135Z,10.34
2019-04-29T07:27:14.091Z,10.41
2019-04-29T07:28:18.370Z,10.42
2019-04-29T07:29:13.991Z,10.51
2019-04-29T07:30:13.942Z,10.58
2019-04-29T07:31:13.894Z,10.61
2019-04-29T07:32:13.850Z,10.75
2019-04-29T07:33:21.985Z,10.77
2019-04-29T07:34:13.754Z,10.71
2019-04-29T07:35:13.705Z,10.83
2019-04-29T07:36:13.656Z,10.94
2019-04-29T07:37:16.513Z,10.94
2019-04-29T07:38:13.560Z,10.94
2019-04-29T07:39:13.515Z,11.02
2019-04-29T07:40:13.466Z,11.10
2019-04-29T07:41:14.243Z,11.18
2019-04-29T07:42:13.370Z,11.16
2019-04-29T07:43:13.322Z,11.33
2019-04-29T07:44:13.776Z,11.26
2019-04-29T07:45:13.228Z,11.37
2019-04-29T07:46:16.269Z,11.45
2019-04-29T07:47:13.131Z,11.49
2019-04-29T07:48:13.088Z,11.45
2019-04-29T07:49:17.172Z,11.45
2019-04-29T07:50:13.126Z,11.56
2019-04-29T07:51:12.941Z,11.55
2019-04-29T07:52:14.570Z,11.63
2019-04-29T07:53:12.850Z,11.71
2019-04-29T07:54:15.878Z,11.86
2019-04-29T07:55:12.753Z,11.88
2019-04-29T07:56:12.709Z,11.91
2019-04-29T07:57:16.448Z,12.02
2019-04-29T07:58:12.613Z,11.97
2019-04-29T07:59:12.573Z,12.07
2019-04-29T08:00:13.066Z,12.17
2019-04-29T08:01:12.472Z,12.20
2019-04-29T08:02:12.427Z,12.20
2019-04-29T08:03:12.378Z,12.26
2019-04-29T08:04:12.329Z,12.26
2019-04-29T08:05:12.284Z,12.37
2019-04-29T08:06:12.236Z,12.37
2019-04-29T08:07:12.187Z,12.51
2019-04-29T08:08:12.140Z,12.58
2019-04-29T08:09:12.098Z,12.66
2019-04-29T08:10:23.249Z,12.63
2019-04-29T08:11:12.004Z,12.69
2019-04-29T08:12:11.956Z,12.72
2019-04-29T08:13:11.916Z,12.84
2019-04-29T08:14:11.863Z,12.87
2019-04-29T08:15:11.814Z,12.93
2019-04-29T08:16:12.710Z,12.99
2019-04-29T08:17:11.723Z,13.05
2019-04-29T08:18:16.105Z,13.17
2019-04-29T08:19:11.629Z,13.27
2019-04-29T08:20:11.585Z,13.26
2019-04-29T08:21:14.293Z,13.33
2019-04-29T08:22:14.666Z,13.42
2019-04-29T08:23:11.442Z,13.43
2019-04-29T08:24:11.740Z,13.49
2019-04-29T08:25:11.349Z,13.50
2019-04-29T08:26:11.304Z,13.62
2019-04-29T08:27:11.256Z,13.76
2019-04-29T08:28:11.209Z,13.70
2019-04-29T08:29:11.164Z,13.79
2019-04-29T08:30:12.617Z,13.85
2019-04-29T08:31:11.071Z,13.94
2019-04-29T08:32:11.024Z,14.03
2019-04-29T08:33:11.937Z,14.04
2019-04-29T08:34:10.937Z,14.15
2019-04-29T08:35:10.886Z,14.19
2019-04-29T08:36:10.839Z,14.30
2019-04-29T08:37:10.796Z,14.25
2019-04-29T08:38:10.749Z,14.34
2019-04-29T08:39:10.701Z,14.45
2019-04-29T08:40:16.544Z,14.51
2019-04-29T08:41:10.614Z,14.43
2019-04-29T08:42:10.566Z,14.49
2019-04-29T08:43:10.521Z,14.66
2019-04-29T08:44:16.469Z,14.71
2019-04-29T08:45:10.428Z,14.74
2019-04-29T08:46:10.392Z,14.82
2019-04-29T08:47:10.337Z,14.74
2019-04-29T08:48:10.293Z,14.77
2019-04-29T08:49:13.110Z,14.78
2019-04-29T08:50:10.198Z,14.79
2019-04-29T08:51:10.158Z,14.92
2019-04-29T08:52:10.109Z,14.99
2019-04-29T08:53:10.064Z,15.00
2019-04-29T08:54:10.016Z,15.02
2019-04-29T08:55:09.971Z,15.17
2019-04-29T08:56:10.555Z,15.15
2019-04-29T08:57:09.883Z,15.22
2019-04-29T08:58:11.206Z,15.22
2019-04-29T08:59:09.790Z,15.18
2019-04-29T09:00:09.742Z,15.29
2019-04-29T09:01:09.698Z,15.30
2019-04-29T09:02:10.564Z,15.37
2019-04-29T09:03:09.611Z,15.41
2019-04-29T09:04:09.564Z,15.51
2019-04-29T09:05:11.292Z,15.60
2019-04-29T09:06:09.476Z,15.66
2019-04-29T09:07:12.698Z,15.70
2019-04-29T09:08:09.425Z,15.76
2019-04-29T09:09:28.152Z,15.75
2019-04-29T09:10:09.290Z,15.84
2019-04-29T09:11:12.981Z,15.88
2019-04-29T09:12:09.200Z,15.94
2019-04-29T09:13:09.155Z,15.90
2019-04-29T09:14:09.111Z,15.91
2019-04-29T09:15:09.071Z,15.99
2019-04-29T09:16:09.021Z,15.98
2019-04-29T09:17:19.788Z,16.10
2019-04-29T09:18:11.076Z,16.18
2019-04-29T09:19:08.883Z,16.24
2019-04-29T09:20:08.844Z,16.26
2019-04-29T09:21:08.794Z,16.17
2019-04-29T09:22:08.748Z,16.32
2019-04-29T09:23:08.712Z,16.32
2019-04-29T09:24:08.660Z,16.22
2019-04-29T09:25:08.614Z,16.26
2019-04-29T09:26:08.569Z,16.32
2019-04-29T09:27:09.601Z,16.40
2019-04-29T09:28:08.481Z,16.40
2019-04-29T09:29:08.435Z,16.51
2019-04-29T09:30:08.390Z,16.59
2019-04-29T09:31:08.344Z,16.66
2019-04-29T09:32:08.303Z,16.74
2019-04-29T09:33:08.831Z,16.83
2019-04-29T09:34:08.210Z,16.87
2019-04-29T09:35:08.166Z,16.89
2019-04-29T09:36:09.609Z,16.95
2019-04-29T09:37:08.077Z,17.07
2019-04-29T09:38:08.031Z,17.10
2019-04-29T09:39:07.988Z,17.12
2019-04-29T09:40:07.943Z,17.23
2019-04-29T09:41:07.898Z,17.31
2019-04-29T09:42:12.622Z,17.34
2019-04-29T09:43:15.224Z,17.42
2019-04-29T09:44:07.764Z,17.32
2019-04-29T09:45:07.721Z,17.30
2019-04-29T09:46:07.676Z,17.44
2019-04-29T09:47:08.614Z,17.47
2019-04-29T09:48:07.588Z,17.44
2019-04-29T09:49:07.543Z,17.52
2019-04-29T09:50:07.498Z,17.56
2019-04-29T09:51:17.133Z,17.54
2019-04-29T09:52:07.421Z,17.46
2019-04-29T09:53:07.366Z,17.57
2019-04-29T09:54:09.689Z,17.65
2019-04-29T09:55:07.277Z,17.59
2019-04-29T09:56:07.233Z,17.66
2019-04-29T09:57:07.190Z,17.69
2019-04-29T09:58:07.144Z,17.78
2019-04-29T09:59:07.100Z,17.78
2019-04-29T10:00:07.182Z,17.84
2019-04-29T10:01:07.012Z,17.87
2019-04-29T10:02:06.969Z,17.90
2019-04-29T10:03:06.925Z,17.91
2019-04-29T10:04:06.879Z,18.02
2019-04-29T10:05:06.837Z,18.00
2019-04-29T10:06:06.791Z,18.03
2019-04-29T10:07:06.748Z,18.08
2019-04-29T10:08:06.702Z,18.15
2019-04-29T10:09:06.660Z,18.13
2019-04-29T10:10:07.739Z,18.06
2019-04-29T10:11:06.572Z,18.03
2019-04-29T10:12:06.527Z,17.95
2019-04-29T10:13:06.486Z,18.06
2019-04-29T10:14:06.441Z,17.98
2019-04-29T10:15:06.396Z,18.09
2019-04-29T10:16:06.352Z,18.23
2019-04-29T10:17:06.311Z,18.30
2019-04-29T10:18:06.262Z,18.34
2019-04-29T10:19:06.986Z,18.34
2019-04-29T10:20:07.982Z,18.43
2019-04-29T10:21:06.132Z,18.64
2019-04-29T10:22:06.087Z,18.76
2019-04-29T10:23:06.066Z,18.76
2019-04-29T10:24:05.999Z,18.96
2019-04-29T10:25:05.957Z,18.83
2019-04-29T10:26:05.913Z,18.71
2019-04-29T10:27:07.303Z,18.68
2019-04-29T10:28:05.825Z,18.58
2019-04-29T10:29:05.782Z,18.55
2019-04-29T10:30:05.742Z,18.60
2019-04-29T10:31:05.700Z,18.63
2019-04-29T10:32:06.719Z,18.63
2019-04-29T10:33:05.607Z,18.83
2019-04-29T10:34:05.560Z,18.85
2019-04-29T10:35:08.696Z,18.85
2019-04-29T10:36:05.477Z,18.96
2019-04-29T10:37:05.431Z,19.07
2019-04-29T10:38:05.387Z,19.12
2019-04-29T10:39:05.343Z,19.15
2019-04-29T10:40:11.358Z,19.08
2019-04-29T10:41:05.258Z,19.05
2019-04-29T10:42:05.214Z,18.98
2019-04-29T10:43:05.170Z,18.91
2019-04-29T10:44:05.126Z,19.01
2019-04-29T10:45:05.087Z,19.05
2019-04-29T10:46:05.039Z,19.15
2019-04-29T10:47:04.995Z,19.29
2019-04-29T10:48:04.953Z,19.27
2019-04-29T10:49:05.301Z,19.22
2019-04-29T10:50:04.865Z,19.19
2019-04-29T10:51:04.823Z,19.15
2019-04-29T10:52:04.784Z,19.19
2019-04-29T10:53:04.734Z,19.16
2019-04-29T10:54:04.692Z,19.09
2019-04-29T10:55:04.649Z,19.19
2019-04-29T10:56:05.740Z,19.05
2019-04-29T10:57:04.561Z,19.04
2019-04-29T10:58:04.517Z,19.00
2019-04-29T10:59:08.822Z,18.83
2019-04-29T11:00:04.432Z,18.94
2019-04-29T11:01:04.392Z,18.71
2019-04-29T11:02:09.347Z,18.71
2019-04-29T11:03:04.301Z,18.66
2019-04-29T11:04:04.258Z,18.81
2019-04-29T11:05:07.974Z,18.88
2019-04-29T11:07:13.956Z,19.12
2019-04-29T11:08:04.349Z,19.07
2019-04-29T11:09:04.039Z,19.19
2019-04-29T11:10:03.997Z,19.16
2019-04-29T11:11:03.951Z,19.11
2019-04-29T11:12:03.908Z,19.04
2019-04-29T11:13:03.869Z,18.97
2019-04-29T11:14:03.821Z,18.97
2019-04-29T11:15:03.779Z,18.85
2019-04-29T11:16:03.734Z,18.83
2019-04-29T11:17:03.691Z,18.79
2019-04-29T11:18:03.981Z,18.81
2019-04-29T11:19:05.592Z,18.70
2019-04-29T11:20:03.559Z,18.71
2019-04-29T11:21:03.515Z,18.83
2019-04-29T11:22:03.473Z,19.04
2019-04-29T11:23:03.433Z,19.07
2019-04-29T11:24:03.386Z,19.22
2019-04-29T11:25:03.344Z,19.45
2019-04-29T11:26:03.297Z,19.55
2019-04-29T11:27:11.469Z,19.56
2019-04-29T11:28:03.212Z,19.42
2019-04-29T11:29:05.497Z,19.52
2019-04-29T11:30:04.843Z,19.42
2019-04-29T11:31:03.084Z,19.44
2019-04-29T11:32:03.036Z,19.32
2019-04-29T11:33:04.652Z,19.24
2019-04-29T11:34:05.443Z,19.23
2019-04-29T11:35:02.908Z,19.16
2019-04-29T11:36:03.928Z,19.07
2019-04-29T11:37:02.834Z,19.16
2019-04-29T11:38:02.779Z,19.45
2019-04-29T11:39:02.733Z,19.64
2019-04-29T11:40:02.690Z,19.84
2019-04-29T11:41:02.648Z,20.11
2019-04-29T11:42:02.603Z,20.11
2019-04-29T11:43:02.560Z,20.00
2019-04-29T11:44:02.518Z,19.89
2019-04-29T11:45:03.729Z,19.85
2019-04-29T11:46:02.432Z,19.84
2019-04-29T11:47:02.392Z,19.81
2019-04-29T11:48:02.343Z,19.72
2019-04-29T11:49:02.305Z,19.75
2019-04-29T11:50:02.258Z,19.87
2019-04-29T11:51:02.216Z,20.27
2019-04-29T11:52:09.573Z,20.36
2019-04-29T11:54:02.093Z,20.18
2019-04-29T11:55:02.044Z,20.14
2019-04-29T11:56:02.001Z,20.00
2019-04-29T11:57:01.958Z,19.99
2019-04-29T11:58:01.915Z,19.94
2019-04-29T11:59:01.893Z,19.79
2019-04-29T12:00:01.830Z,19.84
2019-04-29T12:01:04.096Z,19.77
2019-04-29T12:02:01.743Z,19.87
2019-04-29T12:03:01.701Z,19.96
2019-04-29T12:04:01.658Z,20.11
2019-04-29T12:05:04.118Z,20.12
2019-04-29T12:06:01.570Z,20.21
2019-04-29T12:07:01.527Z,20.58
2019-04-29T12:08:11.696Z,20.83
2019-04-29T12:09:01.446Z,21.00
2019-04-29T12:11:07.169Z,21.22
2019-04-29T12:12:01.316Z,21.19
2019-04-29T12:14:03.009Z,21.19
2019-04-29T12:15:01.196Z,21.15
2019-04-29T12:16:01.153Z,21.33
2019-04-29T12:17:01.105Z,21.60
2019-04-29T12:18:01.060Z,21.74
2019-04-29T12:19:01.018Z,22.00
2019-04-29T12:20:00.978Z,21.96
2019-04-29T12:21:00.938Z,22.21
2019-04-29T12:22:04.792Z,22.19
2019-04-29T12:23:00.854Z,22.31
2019-04-29T12:24:00.808Z,22.51
2019-04-29T12:25:00.766Z,22.56
2019-04-29T12:26:03.243Z,22.67
2019-04-29T12:27:00.683Z,22.86
2019-04-29T12:28:01.847Z,22.93
2019-04-29T12:29:00.600Z,23.04
2019-04-29T12:30:00.641Z,23.26
2019-04-29T12:31:00.520Z,23.36
2019-04-29T12:32:00.479Z,23.13
2019-04-29T12:33:01.377Z,23.06
2019-04-29T12:34:00.394Z,22.95
2019-04-29T12:35:00.352Z,22.71
2019-04-29T12:36:03.207Z,22.65
2019-04-29T12:37:00.271Z,22.52
2019-04-29T12:38:00.762Z,22.36
2019-04-29T12:40:00.148Z,22.41
2019-04-29T12:41:00.108Z,22.43
2019-04-29T12:42:00.543Z,22.52
2019-04-29T12:43:00.029Z,22.51
2019-04-29T12:44:00.006Z,22.51
2019-04-29T12:44:59.941Z,22.31
2019-04-29T12:45:59.900Z,22.23
2019-04-29T12:46:59.859Z,22.25
2019-04-29T12:47:59.925Z,22.37
2019-04-29T12:49:03.621Z,22.61
2019-04-29T12:49:59.735Z,22.68
2019-04-29T12:50:59.704Z,22.91
2019-04-29T12:51:59.652Z,22.96
2019-04-29T12:52:59.611Z,23.02
2019-04-29T12:53:59.569Z,23.14
2019-04-29T12:55:08.483Z,23.02
2019-04-29T12:55:59.489Z,23.02
2019-04-29T12:56:59.449Z,22.93
2019-04-29T12:57:59.412Z,22.99
2019-04-29T12:59:01.470Z,22.88
2019-04-29T12:59:59.325Z,22.99
2019-04-29T13:01:01.259Z,23.04
2019-04-29T13:02:00.090Z,22.88
2019-04-29T13:03:00.232Z,22.80
2019-04-29T13:03:59.163Z,22.56
2019-04-29T13:04:59.127Z,22.70
2019-04-29T13:06:00.882Z,22.76
2019-04-29T13:06:59.105Z,22.92
2019-04-29T13:07:58.999Z,22.89
2019-04-29T13:09:01.522Z,22.77
2019-04-29T13:10:02.128Z,22.76
2019-04-29T13:10:58.875Z,22.95
2019-04-29T13:12:17.831Z,23.08
2019-04-29T13:12:58.794Z,23.18
2019-04-29T13:14:01.671Z,23.32
2019-04-29T13:15:03.134Z,23.44